Burley Municipal Airport
KBYI : now visible

Airfield :











YOU CAN JOIN US ON...

 
LOGIN :

Register | Disclaimer

   EN    FR    IT 

 









Legend :    VFR   Marginal VFR   IFR   Intensive IFR   Very Intensive IFR
Visi :
Ceiling :
>= 8 km
>= 3000ft
5 to 8 km
1000 to 3000 ft
1500m to 5 km
500 to 1000 ft
800 to 1500m
200 to 500 ft
< 800m
< 200 ft
Symbols :   Thunderstorms  Fog  Heavy snow  Heavy precipitations  Wind > 20 kt







- Airport Elevation : 4150 ft


KBYI - Burley Municipal

CURRENT METAR :
  • 202025Z AUTO 25015G20KT 10SM FEW026 BKN036 OVC047 13/06 A2997 RMK AO2 T01280061

EXPIRED METARs :
  • 201953Z AUTO 25016G22KT 10SM BKN028 OVC045 12/05 A2997 RMK AO2 SLP134 T01170050
  • 201853Z AUTO 24016KT 10SM OVC022 10/05 A2996 RMK AO2 SLP133 T01000050
  • 201753Z AUTO 24016G21KT 10SM BKN022 BKN030 OVC036 11/06 A2996 RMK AO2 SLP132 T01060056 10106 20083 51009

TAF KBYI
Valid from the 20 at 18:00 until the 21 at 18:00 UTC


201737Z 2018/2118 27011KT P6SM VCSH OVC020
FM202100 26011KT P6SM VCTS SCT025CB BKN040 OVC100
FM210000 24010KT P6SM -SHRA VCTS BKN040CB OVC060
FM210300 22008KT P6SM VCSH SCT035 BKN060 OVC110
FM210900 24008KT P6SM SCT150
No reported NOTAMs for that airfield.



MET'MAP, your aeronautical weather chart ! - Copyright ORBIFLY December 2007 - Disclaimer

ORBIFLY MET'MAP TEAM :

Programming & Development : Alexandra Zaïnal
Concept & Development : Baudouin d'Aumeries
Co-Development & Prog : Marc-Olivier Méhu
Technical & hardware support : Manuel Goepfert

Contact : metmap@orbifly.com




SOURCES & CREDITS :

   NOAA       Earth
Advisory